Time;durP1;ratioP1;P1;durP2;ratioP2;P2;SDS_P1;SDS_P2;PMS_P1;PMS_P2;Temp;Humidity;BMP_temperature;BMP_pressure;BME280_temperature;BME280_humidity;BME280_pressure;Samples;Min_cycle;Max_cycle;Signal;HPM_P1;HPM_P2
2023/10/27 00:01:16;;;;;;;31.77;20.40;;;11.30;99.90;;;;;;5035702;28;20207;-56
2023/10/27 00:03:42;;;;;;;29.35;20.75;;;11.30;99.90;;;;;;5035255;28;20258;-61
2023/10/27 00:06:08;;;;;;;28.48;21.13;;;11.30;99.90;;;;;;5034979;28;20181;-59
2023/10/27 00:08:34;;;;;;;33.17;22.33;;;11.30;99.90;;;;;;5035347;28;20161;-60
2023/10/27 00:11:05;;;;;;;30.85;21.13;;;11.30;99.90;;;;;;5035089;28;20319;-59
2023/10/27 00:13:31;;;;;;;31.20;21.60;;;11.30;99.90;;;;;;5034757;28;20254;-59
2023/10/27 00:15:57;;;;;;;29.52;19.40;;;11.30;99.90;;;;;;5034937;28;20194;-58
2023/10/27 00:18:23;;;;;;;29.05;20.33;;;11.30;99.90;;;;;;5034614;28;20180;-61
2023/10/27 00:20:48;;;;;;;28.63;19.63;;;11.20;99.90;;;;;;5034719;28;20179;-60
2023/10/27 00:23:15;;;;;;;25.73;19.27;;;11.20;99.90;;;;;;5034839;28;20206;-60
2023/10/27 00:25:41;;;;;;;25.67;18.10;;;11.20;99.90;;;;;;5033786;28;20176;-60
2023/10/27 00:28:07;;;;;;;22.67;16.75;;;11.30;99.90;;;;;;5034524;28;20183;-60
2023/10/27 00:30:33;;;;;;;22.98;16.98;;;11.30;99.90;;;;;;5016529;28;20237;-58
2023/10/27 00:32:59;;;;;;;23.30;16.58;;;11.20;99.90;;;;;;4984342;28;20547;-60
2023/10/27 00:35:25;;;;;;;25.17;17.23;;;11.30;99.90;;;;;;5034739;28;20207;-60
2023/10/27 00:37:51;;;;;;;23.58;16.70;;;11.20;99.90;;;;;;5017285;28;20607;-60
2023/10/27 00:40:17;;;;;;;25.15;17.85;;;11.20;99.90;;;;;;5034511;28;20184;-61
2023/10/27 00:42:43;;;;;;;29.70;17.27;;;11.30;99.90;;;;;;5034453;28;20210;-60
2023/10/27 00:45:09;;;;;;;23.77;17.15;;;11.30;99.90;;;;;;5034229;28;20191;-58
2023/10/27 00:47:35;;;;;;;22.90;17.15;;;11.30;99.90;;;;;;5034605;28;20263;-60
2023/10/27 00:50:01;;;;;;;22.17;17.10;;;11.30;99.90;;;;;;5016442;28;20211;-61
2023/10/27 00:52:29;;;;;;;22.80;17.15;;;11.30;99.90;;;;;;5017254;28;20188;-61
2023/10/27 00:54:56;;;;;;;25.90;17.40;;;11.30;99.90;;;;;;5016437;28;20678;-60
2023/10/27 00:57:23;;;;;;;23.90;18.33;;;11.30;99.90;;;;;;5034393;28;20645;-59
2023/10/27 00:59:52;;;;;;;28.00;18.15;;;11.30;99.90;;;;;;5034789;28;20240;-60
2023/10/27 01:02:18;;;;;;;27.15;18.02;;;11.20;99.90;;;;;;5034208;28;20180;-59
2023/10/27 01:04:45;;;;;;;27.08;18.65;;;11.20;99.90;;;;;;5034149;28;20186;-60
2023/10/27 01:07:11;;;;;;;29.17;18.95;;;11.30;99.90;;;;;;5033873;28;20250;-59
2023/10/27 01:09:37;;;;;;;26.85;19.25;;;11.20;99.90;;;;;;5033842;28;20172;-60
2023/10/27 01:12:03;;;;;;;28.23;19.83;;;11.30;99.90;;;;;;5016357;28;20246;-61
2023/10/27 01:14:30;;;;;;;28.35;19.83;;;11.30;99.90;;;;;;5033784;28;20231;-59
2023/10/27 01:16:56;;;;;;;30.80;21.27;;;11.30;99.90;;;;;;5033614;28;20179;-61
2023/10/27 01:19:23;;;;;;;33.22;22.35;;;11.30;99.90;;;;;;5015952;28;20810;-59
2023/10/27 01:21:49;;;;;;;30.80;20.80;;;11.30;99.90;;;;;;5033776;28;20210;-59
2023/10/27 01:24:15;;;;;;;32.20;20.98;;;11.30;99.90;;;;;;5015778;28;20206;-59
2023/10/27 01:26:41;;;;;;;31.95;21.70;;;11.30;99.90;;;;;;5033907;28;20184;-60
2023/10/27 01:29:07;;;;;;;31.17;21.23;;;11.30;99.90;;;;;;5033372;28;20259;-59
2023/10/27 01:31:33;;;;;;;32.10;22.92;;;11.30;99.90;;;;;;5016147;28;20184;-60
2023/10/27 01:33:58;;;;;;;32.60;21.75;;;11.20;99.90;;;;;;5015225;28;20215;-60
2023/10/27 01:36:24;;;;;;;33.63;21.42;;;11.20;99.90;;;;;;5015477;28;20187;-60
2023/10/27 01:38:50;;;;;;;33.53;22.33;;;11.20;99.90;;;;;;5015757;28;20565;-60
2023/10/27 01:41:17;;;;;;;32.50;22.67;;;11.20;99.90;;;;;;5033379;28;20199;-58
2023/10/27 01:43:43;;;;;;;35.53;22.10;;;11.20;99.90;;;;;;5015790;28;20726;-56
2023/10/27 01:46:09;;;;;;;33.05;22.92;;;11.30;99.90;;;;;;5016180;28;20195;-60
2023/10/27 01:48:36;;;;;;;38.85;23.10;;;11.20;99.90;;;;;;5015434;28;20547;-61
2023/10/27 01:51:03;;;;;;;30.73;22.17;;;11.20;99.90;;;;;;5016019;28;20199;-58
2023/10/27 01:53:29;;;;;;;29.58;22.75;;;11.20;99.90;;;;;;5015495;28;20217;-58
2023/10/27 01:55:55;;;;;;;33.72;22.52;;;11.20;99.90;;;;;;5032904;28;20691;-59
2023/10/27 01:58:21;;;;;;;32.33;22.42;;;11.20;99.90;;;;;;5015629;28;20199;-58
2023/10/27 02:00:46;;;;;;;32.33;24.27;;;11.20;99.90;;;;;;5015600;28;20609;-53
2023/10/27 02:03:12;;;;;;;34.70;23.65;;;11.20;99.90;;;;;;5015125;28;20518;-59
2023/10/27 02:05:43;;;;;;;31.77;22.85;;;11.20;99.90;;;;;;5015321;28;20659;-59
2023/10/27 02:08:08;;;;;;;33.60;23.25;;;11.20;99.90;;;;;;5033871;28;20231;-60
2023/10/27 02:10:35;;;;;;;29.30;22.85;;;11.20;99.90;;;;;;5033021;28;20187;-62
2023/10/27 02:13:01;;;;;;;34.28;22.48;;;11.10;99.90;;;;;;5033084;28;20212;-59
2023/10/27 02:15:27;;;;;;;33.75;21.63;;;11.10;99.90;;;;;;5033022;28;20322;-59
2023/10/27 02:17:53;;;;;;;30.05;22.83;;;11.10;99.90;;;;;;5032554;28;20179;-57
2023/10/27 02:20:20;;;;;;;29.98;21.50;;;11.10;99.90;;;;;;5015081;28;20560;-57
2023/10/27 02:22:46;;;;;;;31.40;22.15;;;11.10;99.90;;;;;;5032303;28;20184;-57
2023/10/27 02:25:11;;;;;;;29.10;21.60;;;11.10;99.90;;;;;;5032907;28;20195;-56
2023/10/27 02:27:41;;;;;;;30.73;21.52;;;11.10;99.90;;;;;;5032551;28;20184;-55
2023/10/27 02:30:08;;;;;;;30.95;21.23;;;11.10;99.90;;;;;;5032216;28;20190;-62
2023/10/27 02:32:34;;;;;;;30.42;22.13;;;11.00;99.90;;;;;;5014921;28;20187;-59
2023/10/27 02:35:00;;;;;;;28.80;21.85;;;11.00;99.90;;;;;;5014430;28;20211;-60
2023/10/27 02:37:26;;;;;;;27.30;19.95;;;11.10;99.90;;;;;;5032878;28;20180;-60
2023/10/27 02:39:52;;;;;;;30.52;21.25;;;11.10;99.90;;;;;;5032162;28;20641;-58
2023/10/27 02:42:18;;;;;;;29.98;21.35;;;11.00;99.90;;;;;;5032163;28;20183;-59
2023/10/27 02:44:43;;;;;;;29.48;21.35;;;11.00;99.90;;;;;;5031854;28;20188;-58
2023/10/27 02:47:10;;;;;;;29.38;22.10;;;11.10;99.90;;;;;;5032231;28;20548;-59
2023/10/27 02:49:36;;;;;;;30.88;21.55;;;11.00;99.90;;;;;;5030480;28;20191;-59
2023/10/27 02:52:02;;;;;;;27.45;20.92;;;11.00;99.90;;;;;;5014366;28;20180;-60
2023/10/27 02:54:27;;;;;;;27.17;20.65;;;11.00;99.90;;;;;;5014138;28;20211;-59
2023/10/27 02:56:53;;;;;;;31.25;21.08;;;11.00;99.90;;;;;;5032705;28;20271;-60
2023/10/27 02:59:19;;;;;;;27.70;21.27;;;11.00;99.90;;;;;;5014643;28;20183;-60
2023/10/27 03:01:45;;;;;;;30.10;21.48;;;11.00;99.90;;;;;;5014797;28;20208;-59
2023/10/27 03:04:12;;;;;;;31.80;21.00;;;11.00;99.90;;;;;;5014018;28;20180;-60
2023/10/27 03:06:42;;;;;;;28.45;21.30;;;11.00;99.90;;;;;;5032144;28;20648;-61
2023/10/27 03:09:08;;;;;;;28.30;20.58;;;11.00;99.90;;;;;;5014545;28;20294;-60
2023/10/27 03:11:34;;;;;;;29.80;20.42;;;11.00;99.90;;;;;;5014690;28;20187;-61
2023/10/27 03:14:00;;;;;;;27.38;20.42;;;11.00;99.90;;;;;;5014298;28;20247;-59
2023/10/27 03:16:26;;;;;;;28.80;20.95;;;11.00;99.90;;;;;;5014461;28;20184;-60
2023/10/27 03:18:53;;;;;;;31.63;21.05;;;11.00;99.90;;;;;;5031944;28;20180;-57
2023/10/27 03:21:19;;;;;;;28.08;20.33;;;11.00;99.90;;;;;;5032344;28;20587;-59
2023/10/27 03:23:46;;;;;;;29.58;21.30;;;11.00;99.90;;;;;;5031882;28;20643;-58
2023/10/27 03:26:12;;;;;;;29.83;21.40;;;11.00;99.90;;;;;;5031950;28;20180;-60
2023/10/27 03:28:38;;;;;;;28.38;21.00;;;11.00;99.90;;;;;;5031607;28;20525;-60
2023/10/27 03:31:04;;;;;;;27.27;20.45;;;11.00;99.90;;;;;;5032212;28;20180;-61
2023/10/27 03:33:30;;;;;;;30.77;21.17;;;11.00;99.90;;;;;;5032189;28;20268;-63
2023/10/27 03:35:56;;;;;;;29.90;21.77;;;11.00;99.90;;;;;;5014758;28;20496;-59
2023/10/27 03:38:22;;;;;;;34.55;22.50;;;11.00;99.90;;;;;;5013908;28;20310;-59
2023/10/27 03:40:48;;;;;;;32.72;22.52;;;11.00;99.90;;;;;;5014412;28;20192;-62
2023/10/27 03:43:15;;;;;;;36.40;22.73;;;11.00;99.90;;;;;;5032314;28;20188;-63
2023/10/27 03:45:41;;;;;;;29.98;21.90;;;11.00;99.90;;;;;;5031976;28;20187;-61
2023/10/27 03:48:07;;;;;;;33.92;22.75;;;11.00;99.90;;;;;;5031507;28;20234;-56
2023/10/27 03:50:34;;;;;;;33.45;22.90;;;11.00;99.90;;;;;;5031740;28;20231;-57
2023/10/27 03:53:00;;;;;;;33.00;23.50;;;11.00;99.90;;;;;;5013860;28;20506;-60
2023/10/27 03:55:26;;;;;;;34.58;23.30;;;10.90;99.90;;;;;;5031540;28;20188;-62
2023/10/27 03:57:55;;;;;;;31.67;22.85;;;10.90;99.90;;;;;;5031842;28;20191;-60
2023/10/27 04:00:24;;;;;;;32.35;23.00;;;10.90;99.90;;;;;;5034139;28;20184;-55
2023/10/27 04:02:50;;;;;;;29.52;22.70;;;10.90;99.90;;;;;;5018207;28;20183;-61
2023/10/27 04:05:16;;;;;;;34.15;21.67;;;10.80;99.90;;;;;;5018113;28;20685;-56
2023/10/27 04:07:42;;;;;;;32.08;22.38;;;10.80;99.90;;;;;;5035106;28;20263;-62
2023/10/27 04:10:08;;;;;;;31.02;22.10;;;10.80;99.90;;;;;;5035216;28;20203;-59
2023/10/27 04:12:34;;;;;;;35.75;23.70;;;10.80;99.90;;;;;;5035316;28;20256;-53
2023/10/27 04:15:00;;;;;;;32.63;24.08;;;10.80;99.90;;;;;;5035296;28;20216;-58
2023/10/27 04:17:26;;;;;;;36.67;23.73;;;10.80;99.90;;;;;;5017482;28;20186;-59
2023/10/27 04:19:52;;;;;;;34.90;24.60;;;10.70;99.90;;;;;;5017959;28;20196;-58
2023/10/27 04:22:18;;;;;;;34.55;24.30;;;10.80;99.90;;;;;;5017409;28;20176;-57
2023/10/27 04:24:44;;;;;;;35.33;23.95;;;10.80;99.90;;;;;;5034635;28;20231;-60
2023/10/27 04:27:10;;;;;;;35.88;23.42;;;10.70;99.90;;;;;;5017304;28;20184;-59
2023/10/27 04:29:36;;;;;;;31.40;23.10;;;10.80;99.90;;;;;;5033666;28;20207;-54
2023/10/27 04:32:03;;;;;;;34.63;24.55;;;10.70;99.90;;;;;;5034584;28;20543;-59
2023/10/27 04:34:28;;;;;;;33.08;24.20;;;10.70;99.90;;;;;;5033285;28;20216;-58
2023/10/27 04:36:55;;;;;;;33.13;23.40;;;10.60;99.90;;;;;;5034607;28;20186;-55
2023/10/27 04:39:21;;;;;;;34.65;24.83;;;10.70;99.90;;;;;;5034393;28;20184;-56
2023/10/27 04:41:47;;;;;;;37.55;25.38;;;10.60;99.90;;;;;;5034455;28;20194;-58
2023/10/27 04:44:12;;;;;;;34.80;25.25;;;10.60;99.90;;;;;;5034545;28;20188;-59
2023/10/27 04:46:38;;;;;;;39.75;25.05;;;10.60;99.90;;;;;;5034374;28;20194;-56
2023/10/27 04:49:04;;;;;;;34.05;24.20;;;10.60;99.90;;;;;;5034665;28;20691;-60
2023/10/27 04:51:30;;;;;;;33.55;23.98;;;10.60;99.90;;;;;;5034653;28;20184;-55
2023/10/27 04:53:56;;;;;;;38.42;25.25;;;10.60;99.90;;;;;;5034318;28;20299;-59
2023/10/27 04:56:22;;;;;;;40.33;24.80;;;10.50;99.90;;;;;;5016439;28;20176;-58
2023/10/27 04:58:48;;;;;;;34.58;24.88;;;10.50;99.90;;;;;;5034119;28;20230;-60
2023/10/27 05:01:14;;;;;;;36.28;25.27;;;10.50;99.90;;;;;;5034209;28;20183;-58
2023/10/27 05:03:40;;;;;;;37.67;25.27;;;10.50;99.90;;;;;;5016818;28;20220;-60
2023/10/27 05:06:10;;;;;;;35.10;25.10;;;10.50;99.90;;;;;;5034004;28;20219;-60
2023/10/27 05:08:36;;;;;;;39.30;25.38;;;10.50;99.90;;;;;;5034113;28;20635;-57
2023/10/27 05:11:03;;;;;;;39.05;24.20;;;10.50;99.90;;;;;;5033510;28;20596;-62
2023/10/27 05:13:30;;;;;;;37.88;24.48;;;10.40;99.90;;;;;;5032791;28;20595;-58
2023/10/27 05:15:56;;;;;;;33.22;24.13;;;10.50;99.90;;;;;;5016665;28;20193;-68
2023/10/27 05:18:22;;;;;;;34.30;24.48;;;10.40;99.90;;;;;;5034245;28;20172;-59
2023/10/27 05:20:48;;;;;;;34.47;23.00;;;10.40;99.90;;;;;;5032495;28;20697;-59
2023/10/27 05:23:14;;;;;;;35.72;23.88;;;10.40;99.90;;;;;;5034083;28;20521;-58
2023/10/27 05:25:41;;;;;;;36.17;23.88;;;10.40;99.90;;;;;;4999965;28;20196;-58
2023/10/27 05:28:08;;;;;;;34.53;23.45;;;10.40;99.90;;;;;;5033779;28;20178;-59
2023/10/27 05:30:35;;;;;;;35.10;23.00;;;10.50;99.90;;;;;;5033835;28;20210;-59
2023/10/27 05:33:01;;;;;;;32.67;22.95;;;10.50;99.90;;;;;;5033432;28;20179;-61
2023/10/27 05:35:30;;;;;;;33.63;21.90;;;10.60;99.90;;;;;;5033524;28;20184;-59
2023/10/27 05:37:56;;;;;;;33.53;22.75;;;10.60;99.90;;;;;;5033885;28;20188;-60
2023/10/27 05:40:23;;;;;;;28.73;22.02;;;10.60;99.90;;;;;;5015671;28;20189;-59
2023/10/27 05:42:49;;;;;;;32.55;22.63;;;10.60;99.90;;;;;;5033450;28;20184;-63
2023/10/27 05:45:15;;;;;;;28.10;21.02;;;10.70;99.90;;;;;;5033003;28;20192;-60
2023/10/27 05:47:41;;;;;;;28.92;20.92;;;10.70;99.90;;;;;;5033415;28;20214;-61
2023/10/27 05:50:09;;;;;;;32.63;22.38;;;10.70;99.90;;;;;;5033264;28;20203;-62
2023/10/27 05:52:35;;;;;;;30.65;20.65;;;10.70;99.90;;;;;;5033498;28;20271;-60
2023/10/27 05:55:01;;;;;;;29.92;21.30;;;10.70;99.90;;;;;;5032997;28;20687;-62
2023/10/27 05:57:27;;;;;;;30.70;21.30;;;10.80;99.90;;;;;;5032522;28;20270;-60
2023/10/27 05:59:53;;;;;;;29.88;20.92;;;10.80;99.90;;;;;;5031771;28;20184;-64
2023/10/27 06:02:20;;;;;;;29.45;21.65;;;10.80;99.90;;;;;;5033518;28;20176;-61
2023/10/27 06:04:46;;;;;;;31.95;20.48;;;10.80;99.90;;;;;;5032417;28;20271;-59
2023/10/27 06:07:18;;;;;;;28.20;20.73;;;10.80;99.90;;;;;;5015470;28;20254;-61
2023/10/27 06:09:44;;;;;;;32.17;21.48;;;10.90;99.90;;;;;;5033070;28;20662;-63
2023/10/27 06:12:10;;;;;;;28.60;20.73;;;10.90;99.90;;;;;;5032552;28;20285;-61
2023/10/27 06:14:41;;;;;;;33.25;21.05;;;10.90;99.90;;;;;;5032615;28;20207;-58
2023/10/27 06:17:08;;;;;;;28.88;20.10;;;10.90;99.90;;;;;;5032781;28;20680;-61
2023/10/27 06:19:35;;;;;;;27.50;20.15;;;10.90;99.90;;;;;;5032381;28;20314;-59
2023/10/27 06:22:01;;;;;;;26.90;20.10;;;11.00;99.90;;;;;;5014662;28;20176;-55
2023/10/27 06:24:27;;;;;;;25.77;19.55;;;11.00;99.90;;;;;;5031195;28;20654;-59
2023/10/27 06:26:53;;;;;;;29.67;20.50;;;10.90;99.90;;;;;;5014656;28;20687;-59
2023/10/27 06:29:19;;;;;;;31.77;21.20;;;11.00;99.90;;;;;;4998406;28;20602;-59
2023/10/27 06:31:45;;;;;;;26.35;20.30;;;11.00;99.90;;;;;;5032187;28;20192;-58
2023/10/27 06:34:11;;;;;;;28.60;20.17;;;11.00;99.90;;;;;;5032369;28;20216;-58
2023/10/27 06:36:37;;;;;;;30.92;20.33;;;11.00;99.90;;;;;;5032138;28;20635;-58
2023/10/27 06:39:03;;;;;;;25.95;20.35;;;11.10;99.90;;;;;;5014371;28;20178;-59
2023/10/27 06:41:29;;;;;;;24.60;19.83;;;11.10;99.90;;;;;;5032504;28;20184;-61
2023/10/27 06:43:55;;;;;;;27.58;20.05;;;11.10;99.90;;;;;;5014341;28;20666;-60
2023/10/27 06:46:22;;;;;;;27.80;19.33;;;11.10;99.90;;;;;;5031820;28;20241;-58
2023/10/27 06:48:50;;;;;;;28.48;19.98;;;11.10;99.90;;;;;;5031936;28;20180;-61
2023/10/27 06:51:16;;;;;;;25.77;19.15;;;11.10;99.90;;;;;;5032133;28;20199;-59
2023/10/27 06:53:43;;;;;;;26.50;19.30;;;11.10;99.90;;;;;;5031736;28;20702;-61
2023/10/27 06:56:09;;;;;;;25.00;18.73;;;11.10;99.90;;;;;;4997968;28;20195;-61
2023/10/27 06:58:35;;;;;;;27.15;20.50;;;11.10;99.90;;;;;;5014478;28;20176;-62
2023/10/27 07:01:08;;;;;;;25.15;17.42;;;11.10;99.90;;;;;;5031838;28;20663;-60
2023/10/27 07:03:35;;;;;;;24.70;17.60;;;11.10;99.90;;;;;;5030657;28;20184;-62
2023/10/27 07:06:03;;;;;;;24.60;18.45;;;11.10;99.90;;;;;;5031553;28;20214;-60
2023/10/27 07:08:30;;;;;;;26.63;19.02;;;11.10;99.90;;;;;;5032320;28;20168;-60
2023/10/27 07:10:59;;;;;;;26.92;18.90;;;11.10;99.90;;;;;;5032077;28;20271;-61
2023/10/27 07:13:26;;;;;;;22.08;17.13;;;11.10;99.90;;;;;;5032257;28;20219;-61
2023/10/27 07:15:53;;;;;;;22.02;17.10;;;11.10;99.90;;;;;;5032114;28;20194;-59
2023/10/27 07:18:19;;;;;;;21.55;16.77;;;11.10;99.90;;;;;;5032155;28;20176;-61
2023/10/27 07:20:46;;;;;;;27.77;17.20;;;11.10;99.90;;;;;;5031691;28;20667;-60
2023/10/27 07:23:13;;;;;;;22.25;16.85;;;11.10;99.90;;;;;;5031707;28;20187;-59
2023/10/27 07:25:39;;;;;;;23.88;18.02;;;11.20;99.90;;;;;;5014425;28;20208;-58
2023/10/27 07:28:05;;;;;;;23.60;18.33;;;11.20;99.90;;;;;;5031660;28;20579;-57
2023/10/27 07:30:31;;;;;;;25.08;17.88;;;11.20;99.90;;;;;;5030702;28;20184;-58
2023/10/27 07:32:57;;;;;;;23.83;18.27;;;11.20;99.90;;;;;;5031837;28;20254;-61
2023/10/27 07:35:23;;;;;;;23.73;18.83;;;11.30;99.90;;;;;;5033563;28;20628;-58
2023/10/27 07:37:49;;;;;;;23.45;18.88;;;11.30;99.90;;;;;;5035755;28;20720;-61
2023/10/27 07:40:15;;;;;;;22.90;18.58;;;11.30;99.90;;;;;;5017867;28;20267;-60
2023/10/27 07:42:41;;;;;;;23.77;18.67;;;11.40;99.90;;;;;;5035715;28;20597;-59
2023/10/27 07:45:08;;;;;;;23.88;18.38;;;11.40;99.90;;;;;;5034921;28;20180;-60
2023/10/27 07:47:34;;;;;;;22.67;18.08;;;11.40;99.90;;;;;;5035143;28;20183;-61
2023/10/27 07:50:05;;;;;;;22.83;18.45;;;11.40;99.90;;;;;;5034027;28;20241;-59
2023/10/27 07:52:33;;;;;;;27.88;19.25;;;11.40;99.90;;;;;;5035122;28;20190;-59
2023/10/27 07:55:00;;;;;;;24.08;19.48;;;11.40;99.90;;;;;;5035385;28;20208;-60
2023/10/27 07:57:27;;;;;;;26.52;18.58;;;11.40;99.90;;;;;;5034890;28;20215;-59
2023/10/27 07:59:53;;;;;;;25.17;19.70;;;11.40;99.90;;;;;;5035426;28;20184;-57
2023/10/27 08:02:19;;;;;;;27.58;19.05;;;11.40;99.90;;;;;;5033988;28;20206;-58
2023/10/27 08:04:45;;;;;;;22.67;17.80;;;11.40;99.90;;;;;;5034771;28;20187;-61
2023/10/27 08:07:11;;;;;;;26.10;20.00;;;11.50;99.90;;;;;;5034792;28;20337;-62
2023/10/27 08:09:38;;;;;;;32.50;23.33;;;11.50;99.90;;;;;;5017548;28;20218;-58
2023/10/27 08:12:06;;;;;;;26.48;18.70;;;11.50;99.90;;;;;;5034842;28;20256;-61
2023/10/27 08:14:35;;;;;;;21.77;16.92;;;11.50;99.90;;;;;;5034695;28;20656;-62
2023/10/27 08:17:02;;;;;;;20.45;17.08;;;11.60;99.90;;;;;;5033613;28;20180;-62
2023/10/27 08:19:28;;;;;;;22.58;15.75;;;11.60;99.90;;;;;;5034470;28;20188;-57
2023/10/27 08:21:54;;;;;;;18.17;15.23;;;11.60;99.90;;;;;;5000820;28;20249;-60
2023/10/27 08:24:20;;;;;;;20.42;15.95;;;11.60;99.90;;;;;;5034250;28;20184;-62
2023/10/27 08:26:46;;;;;;;19.15;15.20;;;11.60;99.90;;;;;;5034619;28;20180;-62
2023/10/27 08:29:12;;;;;;;21.27;15.82;;;11.60;99.90;;;;;;5033232;28;20183;-62
2023/10/27 08:31:38;;;;;;;18.88;14.18;;;11.60;99.90;;;;;;5034149;28;20541;-63
2023/10/27 08:34:05;;;;;;;16.38;13.23;;;11.70;99.90;;;;;;5034450;28;20230;-61
2023/10/27 08:36:31;;;;;;;14.95;12.98;;;11.70;99.90;;;;;;5034506;28;20208;-61
2023/10/27 08:38:57;;;;;;;14.27;11.75;;;11.70;99.90;;;;;;5034347;28;20651;-60
2023/10/27 08:41:25;;;;;;;13.65;11.25;;;11.80;99.90;;;;;;5034176;28;20578;-62
2023/10/27 08:43:54;;;;;;;16.38;11.18;;;11.80;99.90;;;;;;5016437;28;20577;-60
2023/10/27 08:46:22;;;;;;;13.95;10.93;;;11.80;99.90;;;;;;5016045;28;20176;-57
2023/10/27 08:48:48;;;;;;;12.63;10.90;;;11.80;99.90;;;;;;5034074;28;20245;-64
2023/10/27 08:51:15;;;;;;;13.07;10.18;;;11.90;99.90;;;;;;5016443;28;20184;-60
2023/10/27 08:53:42;;;;;;;14.07;10.23;;;11.90;99.90;;;;;;5034167;28;20250;-59
2023/10/27 08:56:12;;;;;;;10.82;9.10;;;11.90;99.90;;;;;;5034223;28;20180;-61
2023/10/27 08:58:49;;;;;;;12.65;9.95;;;12.00;99.90;;;;;;5033812;28;20600;-61
2023/10/27 09:01:15;;;;;;;14.13;10.75;;;12.00;99.90;;;;;;5034195;28;20566;-59
2023/10/27 09:03:42;;;;;;;11.23;9.52;;;12.00;99.90;;;;;;5034067;28;20202;-64
2023/10/27 09:06:08;;;;;;;12.73;9.48;;;12.00;99.90;;;;;;5033704;28;20187;-61
2023/10/27 09:08:34;;;;;;;11.20;9.43;;;12.00;99.90;;;;;;5033969;28;20319;-65
2023/10/27 09:11:00;;;;;;;14.23;9.43;;;12.10;99.90;;;;;;5019274;28;20329;-64
2023/10/27 09:13:26;;;;;;;10.95;8.95;;;12.10;99.90;;;;;;5033356;28;20207;-61
2023/10/27 09:15:52;;;;;;;11.93;9.27;;;12.10;99.90;;;;;;5033678;28;20191;-60
2023/10/27 09:18:32;;;;;;;13.40;9.55;;;12.10;99.90;;;;;;5033874;28;20184;-58
2023/10/27 09:20:58;;;;;;;10.77;8.70;;;12.10;99.90;;;;;;5016128;28;20168;-59
2023/10/27 09:23:25;;;;;;;10.27;8.27;;;12.10;99.90;;;;;;5033206;28;20194;-58
2023/10/27 09:25:56;;;;;;;12.23;8.55;;;12.20;99.90;;;;;;5015471;28;20221;-60
2023/10/27 09:28:28;;;;;;;10.75;9.02;;;12.20;99.90;;;;;;5033528;28;20227;-62
2023/10/27 09:30:54;;;;;;;11.98;8.13;;;12.30;99.90;;;;;;5033464;28;20160;-60
2023/10/27 09:33:23;;;;;;;10.98;8.10;;;12.30;99.90;;;;;;5032727;28;20207;-61
2023/10/27 09:35:51;;;;;;;10.57;8.18;;;12.40;99.90;;;;;;5032326;28;20226;-62
2023/10/27 09:38:18;;;;;;;11.13;8.02;;;12.40;99.90;;;;;;5014438;28;20196;-61
2023/10/27 09:40:48;;;;;;;10.32;8.30;;;12.50;99.90;;;;;;5032629;28;20175;-59
2023/10/27 09:43:21;;;;;;;9.35;8.35;;;12.50;99.90;;;;;;5015015;28;20186;-61
2023/10/27 09:45:55;;;;;;;15.43;9.63;;;12.50;99.90;;;;;;5015449;28;20533;-61
2023/10/27 09:48:25;;;;;;;10.35;8.65;;;12.50;99.90;;;;;;5033567;28;20176;-58
2023/10/27 09:51:00;;;;;;;11.70;8.48;;;12.50;99.90;;;;;;5032881;28;20176;-59
2023/10/27 09:53:28;;;;;;;10.75;8.20;;;12.50;99.90;;;;;;5015160;28;20334;-61
2023/10/27 09:55:56;;;;;;;10.00;8.07;;;12.60;99.90;;;;;;5032242;28;20249;-59
2023/10/27 09:58:25;;;;;;;12.02;8.98;;;12.60;99.90;;;;;;5014713;28;20297;-62
2023/10/27 10:00:51;;;;;;;10.13;8.35;;;12.70;99.90;;;;;;5032812;28;20177;-61
2023/10/27 10:03:17;;;;;;;10.77;9.23;;;12.70;99.90;;;;;;5032437;28;20208;-61
2023/10/27 10:06:10;;;;;;;10.23;8.20;;;12.80;99.90;;;;;;5032149;28;20175;-59
2023/10/27 10:08:36;;;;;;;8.88;7.15;;;12.80;99.90;;;;;;5032003;28;20180;-60
2023/10/27 10:11:16;;;;;;;9.38;7.55;;;12.90;99.90;;;;;;5014856;28;20188;-62
2023/10/27 10:13:44;;;;;;;10.65;7.90;;;12.90;99.90;;;;;;5032513;28;20287;-60
2023/10/27 10:16:12;;;;;;;8.18;6.95;;;12.90;99.90;;;;;;5014355;28;20184;-61
2023/10/27 10:18:39;;;;;;;13.57;8.18;;;12.90;99.90;;;;;;4998112;28;20315;-60
2023/10/27 10:21:06;;;;;;;10.45;7.80;;;13.00;99.90;;;;;;5032052;28;20187;-60
2023/10/27 10:23:38;;;;;;;10.32;7.47;;;13.00;99.90;;;;;;5014737;28;20180;-60
2023/10/27 10:26:04;;;;;;;9.52;7.55;;;13.10;99.90;;;;;;5032538;28;20172;-58
2023/10/27 10:28:36;;;;;;;8.10;7.03;;;13.10;99.90;;;;;;5031706;28;20255;-61
2023/10/27 10:31:08;;;;;;;7.53;6.30;;;13.20;99.90;;;;;;4997978;28;20188;-60
2023/10/27 10:33:35;;;;;;;9.65;6.95;;;13.10;99.90;;;;;;5031618;28;20208;-60
2023/10/27 10:36:22;;;;;;;8.45;7.35;;;13.10;99.90;;;;;;5032303;28;20290;-62
2023/10/27 10:38:59;;;;;;;7.78;6.80;;;13.10;99.90;;;;;;5031761;28;20588;-58
2023/10/27 10:41:53;;;;;;;8.73;7.13;;;13.20;99.90;;;;;;5032090;28;20191;-64
2023/10/27 10:44:19;;;;;;;12.05;7.78;;;13.20;99.90;;;;;;5014543;28;20169;-59
2023/10/27 10:46:45;;;;;;;9.15;6.82;;;13.10;99.90;;;;;;5014655;28;20659;-58
2023/10/27 10:49:21;;;;;;;8.88;6.78;;;13.10;99.90;;;;;;5031708;28;20571;-58
2023/10/27 10:51:52;;;;;;;10.95;7.30;;;13.10;99.90;;;;;;5031826;28;20167;-61
2023/10/27 10:54:19;;;;;;;9.30;7.00;;;13.10;99.90;;;;;;5031841;28;20291;-58
2023/10/27 10:56:45;;;;;;;9.30;7.53;;;13.20;99.90;;;;;;5031948;28;20192;-60
2023/10/27 10:59:19;;;;;;;9.05;8.00;;;13.20;99.90;;;;;;5013701;28;20183;-60
2023/10/27 11:01:45;;;;;;;9.75;7.90;;;13.10;99.90;;;;;;5013986;28;20204;-61
2023/10/27 11:04:11;;;;;;;9.80;8.25;;;13.10;99.90;;;;;;5031435;28;20242;-60
2023/10/27 11:06:37;;;;;;;12.43;8.52;;;13.00;99.90;;;;;;5031258;28;20663;-56
2023/10/27 11:09:04;;;;;;;10.15;8.57;;;13.10;99.90;;;;;;5030477;28;20590;-58
2023/10/27 11:11:33;;;;;;;10.38;8.43;;;13.00;99.90;;;;;;5031401;28;20203;-61
2023/10/27 11:13:59;;;;;;;13.65;8.63;;;13.10;99.90;;;;;;5031428;28;20206;-61
2023/10/27 11:16:26;;;;;;;9.65;8.30;;;13.00;99.90;;;;;;5013586;28;20224;-58
2023/10/27 11:18:54;;;;;;;12.07;9.45;;;13.00;99.90;;;;;;5031725;28;20192;-58
2023/10/27 11:21:22;;;;;;;13.57;9.35;;;13.00;99.90;;;;;;5031822;28;20183;-59
2023/10/27 11:23:49;;;;;;;13.68;9.82;;;13.00;99.90;;;;;;5031377;28;20586;-60
2023/10/27 11:26:16;;;;;;;12.93;10.35;;;12.90;99.90;;;;;;5031341;28;20183;-59
2023/10/27 11:28:43;;;;;;;15.15;10.10;;;12.90;99.90;;;;;;5013768;28;20187;-62
2023/10/27 11:31:19;;;;;;;16.02;10.40;;;12.90;99.90;;;;;;4997324;28;20175;-60
2023/10/27 11:34:00;;;;;;;14.95;10.65;;;12.90;99.90;;;;;;5031802;28;20282;-59
2023/10/27 11:36:30;;;;;;;14.68;12.13;;;12.90;99.90;;;;;;5031421;28;20188;-62
2023/10/27 11:38:56;;;;;;;13.73;11.82;;;12.90;99.90;;;;;;5031544;28;20259;-61
2023/10/27 11:41:22;;;;;;;15.43;12.20;;;12.90;99.90;;;;;;5013826;28;20187;-61
2023/10/27 11:43:48;;;;;;;17.38;13.20;;;12.90;99.90;;;;;;5031379;28;20231;-58
2023/10/27 11:46:16;;;;;;;17.05;12.25;;;12.80;99.90;;;;;;5013805;28;20529;-59
2023/10/27 11:48:43;;;;;;;18.00;14.00;;;12.90;99.90;;;;;;5030995;28;20199;-62
2023/10/27 11:51:10;;;;;;;18.20;11.93;;;12.90;99.90;;;;;;5031075;28;20176;-60
2023/10/27 11:53:46;;;;;;;16.05;12.48;;;12.90;99.90;;;;;;5031050;28;20242;-55
2023/10/27 11:56:12;;;;;;;17.77;13.75;;;12.90;99.90;;;;;;5031347;28;20204;-59
2023/10/27 11:58:39;;;;;;;14.30;11.15;;;12.90;99.90;;;;;;5013347;28;20615;-58
2023/10/27 12:01:05;;;;;;;15.07;10.75;;;12.90;99.90;;;;;;5013347;28;20188;-60
2023/10/27 12:03:31;;;;;;;16.02;10.82;;;12.90;99.90;;;;;;5031002;28;20605;-61
2023/10/27 12:05:57;;;;;;;13.73;10.65;;;12.90;99.90;;;;;;5012537;28;20176;-60
2023/10/27 12:08:24;;;;;;;16.08;10.77;;;12.90;99.90;;;;;;5013867;28;20238;-62
2023/10/27 12:10:52;;;;;;;12.23;10.63;;;12.90;99.90;;;;;;5030663;28;20270;-62
2023/10/27 12:13:20;;;;;;;16.58;11.05;;;12.90;99.90;;;;;;5031328;28;20255;-60
2023/10/27 12:15:47;;;;;;;17.90;11.13;;;12.90;99.90;;;;;;5013065;28;20198;-60
2023/10/27 12:18:16;;;;;;;17.30;11.27;;;12.80;99.90;;;;;;5030861;28;20184;-59
2023/10/27 12:20:43;;;;;;;15.30;11.02;;;12.80;99.90;;;;;;5030849;28;20181;-57
2023/10/27 12:23:09;;;;;;;16.50;10.48;;;12.80;99.90;;;;;;5033706;28;20286;-59
2023/10/27 12:25:36;;;;;;;21.17;16.33;;;12.80;99.90;;;;;;5034445;28;20199;-59
2023/10/27 12:28:07;;;;;;;13.65;11.00;;;12.80;99.90;;;;;;5034737;28;20168;-59
2023/10/27 12:30:35;;;;;;;15.50;11.95;;;12.80;99.90;;;;;;5017352;28;20601;-59